CMH weather

John Glenn Columbus International Airport
Columbus, Ohio, United States

Public forecast

Using degrees Fahrenheit for public forecast. Weather courtesy of forecast.io.

METAR (pilot weather report)

Retrieved 2019/03/18 16:51 UTC (27 minutes ago):

KCMH 181651Z 25005KT 10SM FEW014 03/M06 A3036 RMK AO2 SLP286 T00331056

TAF (pilot weather forecast)

Retrieved 2019/03/18 12:24 UTC (5 hours ago):

TAF KCMH 181121Z 1812/1912 31004KT P6SM SCT050 TEMPO 1812/1814 BKN025 FM181600 31007KT P6SM SCT035 FM190000 00000KT P6SM SKC